sensor_id;sensor_type;location;lat;lon;timestamp;temperature;humidity
11399;DHT22;5755;48.116;11.608;2023-03-01T00:01:54;2.00;87.10
11399;DHT22;5755;48.116;11.608;2023-03-01T00:04:21;2.00;87.50
11399;DHT22;5755;48.116;11.608;2023-03-01T00:06:48;2.00;88.00
11399;DHT22;5755;48.116;11.608;2023-03-01T00:09:15;2.10;88.30
11399;DHT22;5755;48.116;11.608;2023-03-01T00:11:42;2.10;88.20
11399;DHT22;5755;48.116;11.608;2023-03-01T00:14:09;2.00;89.00
11399;DHT22;5755;48.116;11.608;2023-03-01T00:16:38;2.00;89.30
11399;DHT22;5755;48.116;11.608;2023-03-01T00:19:09;2.00;88.70
11399;DHT22;5755;48.116;11.608;2023-03-01T00:21:37;2.00;88.20
11399;DHT22;5755;48.116;11.608;2023-03-01T00:24:05;2.00;87.20
11399;DHT22;5755;48.116;11.608;2023-03-01T00:26:32;2.00;87.80
11399;DHT22;5755;48.116;11.608;2023-03-01T00:29:00;2.00;89.40
11399;DHT22;5755;48.116;11.608;2023-03-01T00:31:28;2.00;88.30
11399;DHT22;5755;48.116;11.608;2023-03-01T00:33:57;2.00;87.10
11399;DHT22;5755;48.116;11.608;2023-03-01T00:36:27;1.90;88.70
11399;DHT22;5755;48.116;11.608;2023-03-01T00:38:54;2.00;88.40
11399;DHT22;5755;48.116;11.608;2023-03-01T00:41:22;2.10;87.10
11399;DHT22;5755;48.116;11.608;2023-03-01T00:43:52;2.00;87.10
11399;DHT22;5755;48.116;11.608;2023-03-01T00:46:21;2.00;87.10
11399;DHT22;5755;48.116;11.608;2023-03-01T00:48:48;2.00;88.10
11399;DHT22;5755;48.116;11.608;2023-03-01T00:51:16;2.00;88.20
11399;DHT22;5755;48.116;11.608;2023-03-01T00:53:46;2.00;88.60
11399;DHT22;5755;48.116;11.608;2023-03-01T00:56:14;2.00;89.20
11399;DHT22;5755;48.116;11.608;2023-03-01T00:58:41;2.00;89.00
11399;DHT22;5755;48.116;11.608;2023-03-01T01:01:10;2.00;87.80
11399;DHT22;5755;48.116;11.608;2023-03-01T01:03:43;2.00;88.90
11399;DHT22;5755;48.116;11.608;2023-03-01T01:06:14;1.90;89.00
11399;DHT22;5755;48.116;11.608;2023-03-01T01:08:41;2.00;88.60
11399;DHT22;5755;48.116;11.608;2023-03-01T01:11:10;2.00;87.90
11399;DHT22;5755;48.116;11.608;2023-03-01T01:13:37;1.90;88.40
11399;DHT22;5755;48.116;11.608;2023-03-01T01:16:05;1.80;89.10
11399;DHT22;5755;48.116;11.608;2023-03-01T01:18:32;1.80;88.90
11399;DHT22;5755;48.116;11.608;2023-03-01T01:21:04;1.80;88.90
11399;DHT22;5755;48.116;11.608;2023-03-01T01:23:31;1.80;89.60
11399;DHT22;5755;48.116;11.608;2023-03-01T01:26:03;1.80;90.00
11399;DHT22;5755;48.116;11.608;2023-03-01T01:28:31;1.80;90.00
11399;DHT22;5755;48.116;11.608;2023-03-01T01:30:58;1.70;90.20
11399;DHT22;5755;48.116;11.608;2023-03-01T01:33:25;1.80;90.00
11399;DHT22;5755;48.116;11.608;2023-03-01T01:35:52;1.80;89.70
11399;DHT22;5755;48.116;11.608;2023-03-01T01:38:20;1.90;88.60
11399;DHT22;5755;48.116;11.608;2023-03-01T01:40:48;1.90;88.00
11399;DHT22;5755;48.116;11.608;2023-03-01T01:43:19;1.80;87.50
11399;DHT22;5755;48.116;11.608;2023-03-01T01:45:48;1.80;88.40
11399;DHT22;5755;48.116;11.608;2023-03-01T01:48:19;1.80;87.80
11399;DHT22;5755;48.116;11.608;2023-03-01T01:50:55;1.90;87.70
11399;DHT22;5755;48.116;11.608;2023-03-01T01:53:22;1.80;87.90
11399;DHT22;5755;48.116;11.608;2023-03-01T01:55:53;1.90;87.00
11399;DHT22;5755;48.116;11.608;2023-03-01T01:58:22;1.80;88.70
11399;DHT22;5755;48.116;11.608;2023-03-01T02:00:53;1.70;90.00
11399;DHT22;5755;48.116;11.608;2023-03-01T02:03:24;1.80;89.30
11399;DHT22;5755;48.116;11.608;2023-03-01T02:05:58;1.90;87.00
11399;DHT22;5755;48.116;11.608;2023-03-01T02:08:29;1.90;87.00
11399;DHT22;5755;48.116;11.608;2023-03-01T02:10:57;1.90;87.00
11399;DHT22;5755;48.116;11.608;2023-03-01T02:13:25;1.90;87.00
11399;DHT22;5755;48.116;11.608;2023-03-01T02:15:53;1.80;86.90
11399;DHT22;5755;48.116;11.608;2023-03-01T02:18:21;1.90;87.00
11399;DHT22;5755;48.116;11.608;2023-03-01T02:20:58;1.90;87.70
11399;DHT22;5755;48.116;11.608;2023-03-01T02:23:29;1.80;87.00
11399;DHT22;5755;48.116;11.608;2023-03-01T02:26:00;1.80;87.00
11399;DHT22;5755;48.116;11.608;2023-03-01T02:28:34;1.90;87.00
11399;DHT22;5755;48.116;11.608;2023-03-01T02:31:03;1.80;87.00
11399;DHT22;5755;48.116;11.608;2023-03-01T02:33:48;1.70;86.90
11399;DHT22;5755;48.116;11.608;2023-03-01T02:36:18;1.80;87.00
11399;DHT22;5755;48.116;11.608;2023-03-01T02:38:46;1.80;87.00
11399;DHT22;5755;48.116;11.608;2023-03-01T02:41:15;1.80;87.00
11399;DHT22;5755;48.116;11.608;2023-03-01T02:43:46;1.70;86.90
11399;DHT22;5755;48.116;11.608;2023-03-01T02:46:15;1.70;86.90
11399;DHT22;5755;48.116;11.608;2023-03-01T02:48:45;1.70;86.80
11399;DHT22;5755;48.116;11.608;2023-03-01T02:51:32;1.60;86.80
11399;DHT22;5755;48.116;11.608;2023-03-01T02:54:10;1.60;86.80
11399;DHT22;5755;48.116;11.608;2023-03-01T02:56:41;1.60;86.80
11399;DHT22;5755;48.116;11.608;2023-03-01T02:59:10;1.60;86.80
11399;DHT22;5755;48.116;11.608;2023-03-01T03:01:38;1.60;86.80
11399;DHT22;5755;48.116;11.608;2023-03-01T03:04:05;1.60;86.80
11399;DHT22;5755;48.116;11.608;2023-03-01T03:06:34;1.50;86.80
11399;DHT22;5755;48.116;11.608;2023-03-01T03:09:01;1.50;86.80
11399;DHT22;5755;48.116;11.608;2023-03-01T03:11:29;1.50;86.80
11399;DHT22;5755;48.116;11.608;2023-03-01T03:13:55;1.50;86.70
11399;DHT22;5755;48.116;11.608;2023-03-01T03:16:24;1.50;86.70
11399;DHT22;5755;48.116;11.608;2023-03-01T03:18:51;1.50;86.80
11399;DHT22;5755;48.116;11.608;2023-03-01T03:21:18;1.50;86.70
11399;DHT22;5755;48.116;11.608;2023-03-01T03:23:45;1.40;88.60
11399;DHT22;5755;48.116;11.608;2023-03-01T03:26:11;1.50;86.70
11399;DHT22;5755;48.116;11.608;2023-03-01T03:28:40;1.50;86.00
11399;DHT22;5755;48.116;11.608;2023-03-01T03:31:07;1.50;86.80
11399;DHT22;5755;48.116;11.608;2023-03-01T03:33:36;1.50;86.70
11399;DHT22;5755;48.116;11.608;2023-03-01T03:36:04;1.40;86.70
11399;DHT22;5755;48.116;11.608;2023-03-01T03:38:31;1.40;87.00
11399;DHT22;5755;48.116;11.608;2023-03-01T03:41:03;1.50;86.80
11399;DHT22;5755;48.116;11.608;2023-03-01T03:43:32;1.50;86.80
11399;DHT22;5755;48.116;11.608;2023-03-01T03:45:59;1.50;86.80
11399;DHT22;5755;48.116;11.608;2023-03-01T03:48:26;1.50;86.70
11399;DHT22;5755;48.116;11.608;2023-03-01T03:50:56;1.40;86.70
11399;DHT22;5755;48.116;11.608;2023-03-01T03:53:25;1.40;86.70
11399;DHT22;5755;48.116;11.608;2023-03-01T03:55:52;1.40;86.70
11399;DHT22;5755;48.116;11.608;2023-03-01T03:58:20;1.40;86.70
11399;DHT22;5755;48.116;11.608;2023-03-01T04:00:49;1.40;87.50
11399;DHT22;5755;48.116;11.608;2023-03-01T04:03:18;1.30;86.60
11399;DHT22;5755;48.116;11.608;2023-03-01T04:05:46;1.30;88.00
11399;DHT22;5755;48.116;11.608;2023-03-01T04:08:14;1.20;88.90
11399;DHT22;5755;48.116;11.608;2023-03-01T04:10:43;1.30;87.60
11399;DHT22;5755;48.116;11.608;2023-03-01T04:13:12;1.40;86.70
11399;DHT22;5755;48.116;11.608;2023-03-01T04:15:39;1.40;86.70
11399;DHT22;5755;48.116;11.608;2023-03-01T04:18:09;1.40;86.70
11399;DHT22;5755;48.116;11.608;2023-03-01T04:20:38;1.40;86.70
11399;DHT22;5755;48.116;11.608;2023-03-01T04:23:06;1.40;86.70
11399;DHT22;5755;48.116;11.608;2023-03-01T04:25:47;1.20;86.60
11399;DHT22;5755;48.116;11.608;2023-03-01T04:28:19;1.10;86.50
11399;DHT22;5755;48.116;11.608;2023-03-01T04:30:46;1.00;88.00
11399;DHT22;5755;48.116;11.608;2023-03-01T04:33:13;1.00;88.30
11399;DHT22;5755;48.116;11.608;2023-03-01T04:35:39;1.10;88.80
11399;DHT22;5755;48.116;11.608;2023-03-01T04:38:07;1.10;87.10
11399;DHT22;5755;48.116;11.608;2023-03-01T04:40:34;1.10;86.50
11399;DHT22;5755;48.116;11.608;2023-03-01T04:43:03;1.10;86.50
11399;DHT22;5755;48.116;11.608;2023-03-01T04:45:32;1.10;86.50
11399;DHT22;5755;48.116;11.608;2023-03-01T04:47:59;1.00;87.40
11399;DHT22;5755;48.116;11.608;2023-03-01T04:50:26;0.90;87.40
11399;DHT22;5755;48.116;11.608;2023-03-01T04:52:53;0.90;88.30
11399;DHT22;5755;48.116;11.608;2023-03-01T04:55:24;0.80;88.30
11399;DHT22;5755;48.116;11.608;2023-03-01T04:57:51;0.80;88.50
11399;DHT22;5755;48.116;11.608;2023-03-01T05:00:21;0.80;88.70
11399;DHT22;5755;48.116;11.608;2023-03-01T05:02:50;0.80;88.50
11399;DHT22;5755;48.116;11.608;2023-03-01T05:05:20;0.80;87.90
11399;DHT22;5755;48.116;11.608;2023-03-01T05:07:54;0.80;88.90
11399;DHT22;5755;48.116;11.608;2023-03-01T05:10:21;0.80;89.50
11399;DHT22;5755;48.116;11.608;2023-03-01T05:12:49;0.80;89.00
11399;DHT22;5755;48.116;11.608;2023-03-01T05:15:17;0.80;88.90
11399;DHT22;5755;48.116;11.608;2023-03-01T05:17:46;0.80;89.20
11399;DHT22;5755;48.116;11.608;2023-03-01T05:20:13;0.80;89.00
11399;DHT22;5755;48.116;11.608;2023-03-01T05:22:39;0.70;89.50
11399;DHT22;5755;48.116;11.608;2023-03-01T05:25:07;0.60;90.20
11399;DHT22;5755;48.116;11.608;2023-03-01T05:27:34;0.70;90.20
11399;DHT22;5755;48.116;11.608;2023-03-01T05:30:01;0.70;89.50
11399;DHT22;5755;48.116;11.608;2023-03-01T05:32:42;0.70;89.60
11399;DHT22;5755;48.116;11.608;2023-03-01T05:35:12;0.60;90.10
11399;DHT22;5755;48.116;11.608;2023-03-01T05:37:41;0.60;90.10
11399;DHT22;5755;48.116;11.608;2023-03-01T05:40:10;0.60;90.00
11399;DHT22;5755;48.116;11.608;2023-03-01T05:42:42;0.60;90.30
11399;DHT22;5755;48.116;11.608;2023-03-01T05:45:09;0.60;90.40
11399;DHT22;5755;48.116;11.608;2023-03-01T05:47:38;0.60;90.10
11399;DHT22;5755;48.116;11.608;2023-03-01T05:50:12;0.60;90.20
11399;DHT22;5755;48.116;11.608;2023-03-01T05:52:40;0.50;90.40
11399;DHT22;5755;48.116;11.608;2023-03-01T05:55:07;0.50;90.50
11399;DHT22;5755;48.116;11.608;2023-03-01T05:57:34;0.60;90.20
11399;DHT22;5755;48.116;11.608;2023-03-01T06:00:01;0.60;90.30
11399;DHT22;5755;48.116;11.608;2023-03-01T06:02:28;0.60;90.10
11399;DHT22;5755;48.116;11.608;2023-03-01T06:04:55;0.50;90.30
11399;DHT22;5755;48.116;11.608;2023-03-01T06:07:24;0.50;90.10
11399;DHT22;5755;48.116;11.608;2023-03-01T06:09:52;0.40;90.30
11399;DHT22;5755;48.116;11.608;2023-03-01T06:12:19;0.40;90.10
11399;DHT22;5755;48.116;11.608;2023-03-01T06:14:46;0.40;90.20
11399;DHT22;5755;48.116;11.608;2023-03-01T06:17:14;0.40;90.20
11399;DHT22;5755;48.116;11.608;2023-03-01T06:19:40;0.40;90.00
11399;DHT22;5755;48.116;11.608;2023-03-01T06:22:07;0.30;90.50
11399;DHT22;5755;48.116;11.608;2023-03-01T06:24:36;0.40;90.60
11399;DHT22;5755;48.116;11.608;2023-03-01T06:27:03;0.40;90.70
11399;DHT22;5755;48.116;11.608;2023-03-01T06:29:30;0.40;90.60
11399;DHT22;5755;48.116;11.608;2023-03-01T06:31:57;0.50;90.40
11399;DHT22;5755;48.116;11.608;2023-03-01T06:34:23;0.50;90.60
11399;DHT22;5755;48.116;11.608;2023-03-01T06:36:50;0.50;90.80
11399;DHT22;5755;48.116;11.608;2023-03-01T06:39:17;0.40;90.60
11399;DHT22;5755;48.116;11.608;2023-03-01T06:41:45;0.40;90.40
11399;DHT22;5755;48.116;11.608;2023-03-01T06:44:12;0.50;90.10
11399;DHT22;5755;48.116;11.608;2023-03-01T06:46:39;0.60;89.40
11399;DHT22;5755;48.116;11.608;2023-03-01T06:49:06;0.70;89.40
11399;DHT22;5755;48.116;11.608;2023-03-01T06:51:35;0.70;88.70
11399;DHT22;5755;48.116;11.608;2023-03-01T06:54:02;0.70;88.90
11399;DHT22;5755;48.116;11.608;2023-03-01T06:56:29;0.60;89.90
11399;DHT22;5755;48.116;11.608;2023-03-01T06:58:58;0.60;89.50
11399;DHT22;5755;48.116;11.608;2023-03-01T07:01:25;0.60;90.00
11399;DHT22;5755;48.116;11.608;2023-03-01T07:03:52;0.60;90.00
11399;DHT22;5755;48.116;11.608;2023-03-01T07:06:18;0.70;89.30
11399;DHT22;5755;48.116;11.608;2023-03-01T07:08:45;0.70;89.20
11399;DHT22;5755;48.116;11.608;2023-03-01T07:11:12;0.80;88.60
11399;DHT22;5755;48.116;11.608;2023-03-01T07:13:39;0.90;87.00
11399;DHT22;5755;48.116;11.608;2023-03-01T07:16:08;0.80;86.40
11399;DHT22;5755;48.116;11.608;2023-03-01T07:18:37;0.90;86.60
11399;DHT22;5755;48.116;11.608;2023-03-01T07:21:05;0.90;86.40
11399;DHT22;5755;48.116;11.608;2023-03-01T07:23:32;0.90;86.40
11399;DHT22;5755;48.116;11.608;2023-03-01T07:25:59;0.80;86.60
11399;DHT22;5755;48.116;11.608;2023-03-01T07:28:26;0.70;87.00
11399;DHT22;5755;48.116;11.608;2023-03-01T07:30:54;0.70;87.90
11399;DHT22;5755;48.116;11.608;2023-03-01T07:33:22;0.80;88.60
11399;DHT22;5755;48.116;11.608;2023-03-01T07:35:56;0.90;86.70
11399;DHT22;5755;48.116;11.608;2023-03-01T07:38:24;0.90;86.40
11399;DHT22;5755;48.116;11.608;2023-03-01T07:40:51;0.80;86.30
11399;DHT22;5755;48.116;11.608;2023-03-01T07:43:18;0.80;87.00
11399;DHT22;5755;48.116;11.608;2023-03-01T07:45:44;0.90;86.40
11399;DHT22;5755;48.116;11.608;2023-03-01T07:48:11;0.90;86.40
11399;DHT22;5755;48.116;11.608;2023-03-01T07:50:39;0.90;86.40
11399;DHT22;5755;48.116;11.608;2023-03-01T07:53:06;1.00;86.40
11399;DHT22;5755;48.116;11.608;2023-03-01T07:55:33;1.00;86.50
11399;DHT22;5755;48.116;11.608;2023-03-01T07:58:00;1.10;86.50
11399;DHT22;5755;48.116;11.608;2023-03-01T08:13:43;1.10;87.80
11399;DHT22;5755;48.116;11.608;2023-03-01T08:16:11;1.30;86.60
11399;DHT22;5755;48.116;11.608;2023-03-01T08:18:39;1.40;86.70
11399;DHT22;5755;48.116;11.608;2023-03-01T08:21:07;1.50;85.50
11399;DHT22;5755;48.116;11.608;2023-03-01T08:23:35;1.30;84.90
11399;DHT22;5755;48.116;11.608;2023-03-01T08:26:06;1.40;84.50
11399;DHT22;5755;48.116;11.608;2023-03-01T08:28:34;1.60;83.00
11399;DHT22;5755;48.116;11.608;2023-03-01T08:31:03;1.70;82.10
11399;DHT22;5755;48.116;11.608;2023-03-01T08:33:29;1.40;82.80
11399;DHT22;5755;48.116;11.608;2023-03-01T08:36:04;1.40;84.40
11399;DHT22;5755;48.116;11.608;2023-03-01T08:38:32;1.60;83.80
11399;DHT22;5755;48.116;11.608;2023-03-01T08:41:00;1.70;82.80
11399;DHT22;5755;48.116;11.608;2023-03-01T08:43:27;1.90;80.60
11399;DHT22;5755;48.116;11.608;2023-03-01T08:45:54;1.90;80.20
11399;DHT22;5755;48.116;11.608;2023-03-01T08:48:22;2.00;78.70
11399;DHT22;5755;48.116;11.608;2023-03-01T08:50:50;2.10;78.60
11399;DHT22;5755;48.116;11.608;2023-03-01T08:53:17;2.20;78.50
11399;DHT22;5755;48.116;11.608;2023-03-01T08:55:43;2.30;77.40
11399;DHT22;5755;48.116;11.608;2023-03-01T08:58:10;2.40;76.80
11399;DHT22;5755;48.116;11.608;2023-03-01T09:00:37;2.30;76.60
11399;DHT22;5755;48.116;11.608;2023-03-01T09:03:05;2.40;77.60
11399;DHT22;5755;48.116;11.608;2023-03-01T09:05:34;2.50;75.00
11399;DHT22;5755;48.116;11.608;2023-03-01T09:08:02;2.50;75.80
11399;DHT22;5755;48.116;11.608;2023-03-01T09:10:29;2.50;76.20
11399;DHT22;5755;48.116;11.608;2023-03-01T09:12:56;2.40;76.90
11399;DHT22;5755;48.116;11.608;2023-03-01T09:15:23;2.50;77.10
11399;DHT22;5755;48.116;11.608;2023-03-01T09:17:50;2.40;77.20
11399;DHT22;5755;48.116;11.608;2023-03-01T09:20:17;2.60;75.90
11399;DHT22;5755;48.116;11.608;2023-03-01T09:22:45;2.70;75.20
11399;DHT22;5755;48.116;11.608;2023-03-01T09:25:12;2.60;75.20
11399;DHT22;5755;48.116;11.608;2023-03-01T09:27:39;2.70;74.90
11399;DHT22;5755;48.116;11.608;2023-03-01T09:30:07;2.80;73.80
11399;DHT22;5755;48.116;11.608;2023-03-01T09:32:34;2.70;73.30
11399;DHT22;5755;48.116;11.608;2023-03-01T09:35:01;2.70;74.30
11399;DHT22;5755;48.116;11.608;2023-03-01T09:37:31;2.80;75.40
11399;DHT22;5755;48.116;11.608;2023-03-01T09:40:00;3.00;72.40
11399;DHT22;5755;48.116;11.608;2023-03-01T09:42:28;3.00;69.60
11399;DHT22;5755;48.116;11.608;2023-03-01T09:45:00;3.00;68.70
11399;DHT22;5755;48.116;11.608;2023-03-01T09:47:29;2.80;71.00
11399;DHT22;5755;48.116;11.608;2023-03-01T09:50:03;2.80;72.10
11399;DHT22;5755;48.116;11.608;2023-03-01T09:52:35;2.90;70.80
11399;DHT22;5755;48.116;11.608;2023-03-01T09:55:11;3.00;70.00
11399;DHT22;5755;48.116;11.608;2023-03-01T09:57:45;3.10;67.80
11399;DHT22;5755;48.116;11.608;2023-03-01T10:00:25;2.90;68.70
11399;DHT22;5755;48.116;11.608;2023-03-01T10:02:58;3.00;68.80
11399;DHT22;5755;48.116;11.608;2023-03-01T10:05:39;3.20;68.20
11399;DHT22;5755;48.116;11.608;2023-03-01T10:08:30;3.30;68.00
11399;DHT22;5755;48.116;11.608;2023-03-01T10:11:03;3.20;67.90
11399;DHT22;5755;48.116;11.608;2023-03-01T10:13:37;3.10;67.80
11399;DHT22;5755;48.116;11.608;2023-03-01T10:16:13;3.10;71.10
11399;DHT22;5755;48.116;11.608;2023-03-01T10:18:43;3.30;68.00
11399;DHT22;5755;48.116;11.608;2023-03-01T10:21:17;3.30;68.00
11399;DHT22;5755;48.116;11.608;2023-03-01T10:23:44;3.10;69.80
11399;DHT22;5755;48.116;11.608;2023-03-01T10:26:28;3.30;68.00
11399;DHT22;5755;48.116;11.608;2023-03-01T10:29:02;3.60;65.80
11399;DHT22;5755;48.116;11.608;2023-03-01T10:31:38;3.70;62.00
11399;DHT22;5755;48.116;11.608;2023-03-01T10:34:10;4.00;57.10
11399;DHT22;5755;48.116;11.608;2023-03-01T10:36:39;4.10;53.00
11399;DHT22;5755;48.116;11.608;2023-03-01T10:39:13;4.30;52.50
11399;DHT22;5755;48.116;11.608;2023-03-01T10:41:56;4.30;51.60
11399;DHT22;5755;48.116;11.608;2023-03-01T10:44:38;4.30;52.00
11399;DHT22;5755;48.116;11.608;2023-03-01T10:47:13;4.30;55.50
11399;DHT22;5755;48.116;11.608;2023-03-01T10:49:52;4.40;49.90
11399;DHT22;5755;48.116;11.608;2023-03-01T10:52:21;4.60;50.50
11399;DHT22;5755;48.116;11.608;2023-03-01T10:54:54;4.80;48.00
11399;DHT22;5755;48.116;11.608;2023-03-01T10:57:35;4.80;47.00
11399;DHT22;5755;48.116;11.608;2023-03-01T11:00:22;4.60;48.30
11399;DHT22;5755;48.116;11.608;2023-03-01T11:03:01;4.60;49.20
11399;DHT22;5755;48.116;11.608;2023-03-01T11:05:29;5.30;45.80
11399;DHT22;5755;48.116;11.608;2023-03-01T11:08:00;6.10;36.70
11399;DHT22;5755;48.116;11.608;2023-03-01T11:10:30;6.30;38.00
11399;DHT22;5755;48.116;11.608;2023-03-01T11:13:08;7.00;32.10
11399;DHT22;5755;48.116;11.608;2023-03-01T11:15:35;7.50;29.70
11399;DHT22;5755;48.116;11.608;2023-03-01T11:18:02;7.40;28.70
11399;DHT22;5755;48.116;11.608;2023-03-01T11:20:31;7.20;29.10
11399;DHT22;5755;48.116;11.608;2023-03-01T11:23:02;6.60;30.90
11399;DHT22;5755;48.116;11.608;2023-03-01T11:25:35;6.00;32.80
11399;DHT22;5755;48.116;11.608;2023-03-01T11:28:05;5.90;33.90
11399;DHT22;5755;48.116;11.608;2023-03-01T11:30:37;5.80;34.90
11399;DHT22;5755;48.116;11.608;2023-03-01T11:33:16;5.90;34.80
11399;DHT22;5755;48.116;11.608;2023-03-01T11:35:48;5.70;35.00
11399;DHT22;5755;48.116;11.608;2023-03-01T11:38:21;5.50;35.60
11399;DHT22;5755;48.116;11.608;2023-03-01T11:40:52;5.40;37.30
11399;DHT22;5755;48.116;11.608;2023-03-01T11:43:23;5.50;37.50
11399;DHT22;5755;48.116;11.608;2023-03-01T11:46:21;5.50;37.70
11399;DHT22;5755;48.116;11.608;2023-03-01T11:49:00;5.60;39.30
11399;DHT22;5755;48.116;11.608;2023-03-01T11:51:40;5.40;39.50
11399;DHT22;5755;48.116;11.608;2023-03-01T11:54:24;5.20;40.90
11399;DHT22;5755;48.116;11.608;2023-03-01T11:56:57;5.10;42.30
11399;DHT22;5755;48.116;11.608;2023-03-01T11:59:57;5.40;41.40
11399;DHT22;5755;48.116;11.608;2023-03-01T12:02:46;5.50;39.70
11399;DHT22;5755;48.116;11.608;2023-03-01T12:05:25;5.50;40.20
11399;DHT22;5755;48.116;11.608;2023-03-01T12:08:04;5.50;40.00
11399;DHT22;5755;48.116;11.608;2023-03-01T12:10:38;5.40;41.30
11399;DHT22;5755;48.116;11.608;2023-03-01T12:13:21;5.50;40.90
11399;DHT22;5755;48.116;11.608;2023-03-01T12:16:12;5.60;40.00
11399;DHT22;5755;48.116;11.608;2023-03-01T12:19:01;5.50;41.00
11399;DHT22;5755;48.116;11.608;2023-03-01T12:21:58;5.30;41.50
11399;DHT22;5755;48.116;11.608;2023-03-01T12:24:52;5.30;42.00
11399;DHT22;5755;48.116;11.608;2023-03-01T12:27:50;5.30;44.50
11399;DHT22;5755;48.116;11.608;2023-03-01T12:30:26;5.30;44.50
11399;DHT22;5755;48.116;11.608;2023-03-01T12:33:07;5.50;44.70
11399;DHT22;5755;48.116;11.608;2023-03-01T12:36:10;5.70;42.90
11399;DHT22;5755;48.116;11.608;2023-03-01T12:38:42;5.30;44.40
11399;DHT22;5755;48.116;11.608;2023-03-01T12:44:12;5.30;44.50
11399;DHT22;5755;48.116;11.608;2023-03-01T12:46:51;5.30;44.60
11399;DHT22;5755;48.116;11.608;2023-03-01T12:49:24;5.30;44.50
11399;DHT22;5755;48.116;11.608;2023-03-01T12:51:59;5.40;44.60
11399;DHT22;5755;48.116;11.608;2023-03-01T12:54:30;5.50;44.80
11399;DHT22;5755;48.116;11.608;2023-03-01T12:57:06;5.40;44.60
11399;DHT22;5755;48.116;11.608;2023-03-01T12:59:39;5.50;44.70
11399;DHT22;5755;48.116;11.608;2023-03-01T13:02:16;5.10;45.50
11399;DHT22;5755;48.116;11.608;2023-03-01T13:04:58;5.20;48.60
11399;DHT22;5755;48.116;11.608;2023-03-01T13:07:35;5.40;47.30
11399;DHT22;5755;48.116;11.608;2023-03-01T13:10:21;5.50;44.80
11399;DHT22;5755;48.116;11.608;2023-03-01T13:13:00;5.70;44.80
11399;DHT22;5755;48.116;11.608;2023-03-01T13:15:33;5.50;44.70
11399;DHT22;5755;48.116;11.608;2023-03-01T13:18:02;5.40;47.00
11399;DHT22;5755;48.116;11.608;2023-03-01T13:20:33;5.60;44.80
11399;DHT22;5755;48.116;11.608;2023-03-01T13:23:07;5.70;44.80
11399;DHT22;5755;48.116;11.608;2023-03-01T13:26:03;5.80;44.90
11399;DHT22;5755;48.116;11.608;2023-03-01T13:28:54;5.80;44.90
11399;DHT22;5755;48.116;11.608;2023-03-01T13:37:29;6.00;45.10
11399;DHT22;5755;48.116;11.608;2023-03-01T13:40:00;6.00;45.10
11399;DHT22;5755;48.116;11.608;2023-03-01T13:42:36;6.00;45.10
11399;DHT22;5755;48.116;11.608;2023-03-01T13:45:14;6.00;45.10
11399;DHT22;5755;48.116;11.608;2023-03-01T13:47:42;6.00;45.10
11399;DHT22;5755;48.116;11.608;2023-03-01T13:50:19;6.10;45.20
11399;DHT22;5755;48.116;11.608;2023-03-01T13:52:51;6.20;45.30
11399;DHT22;5755;48.116;11.608;2023-03-01T13:55:24;6.20;45.30
11399;DHT22;5755;48.116;11.608;2023-03-01T13:57:55;6.20;45.30
11399;DHT22;5755;48.116;11.608;2023-03-01T14:00:29;6.30;45.40
11399;DHT22;5755;48.116;11.608;2023-03-01T14:03:10;6.30;45.30
11399;DHT22;5755;48.116;11.608;2023-03-01T14:05:38;6.30;45.30
11399;DHT22;5755;48.116;11.608;2023-03-01T14:08:19;6.30;45.30
11399;DHT22;5755;48.116;11.608;2023-03-01T14:10:56;6.30;45.90
11399;DHT22;5755;48.116;11.608;2023-03-01T14:13:32;6.30;45.40
11399;DHT22;5755;48.116;11.608;2023-03-01T14:16:16;6.30;45.40
11399;DHT22;5755;48.116;11.608;2023-03-01T14:18:49;6.30;45.30
11399;DHT22;5755;48.116;11.608;2023-03-01T14:21:18;6.30;45.30
11399;DHT22;5755;48.116;11.608;2023-03-01T14:23:46;6.30;45.30
11399;DHT22;5755;48.116;11.608;2023-03-01T14:26:20;6.30;45.30
11399;DHT22;5755;48.116;11.608;2023-03-01T14:28:48;6.40;45.40
11399;DHT22;5755;48.116;11.608;2023-03-01T14:31:32;6.40;45.40
11399;DHT22;5755;48.116;11.608;2023-03-01T14:34:00;6.50;45.50
11399;DHT22;5755;48.116;11.608;2023-03-01T14:36:29;6.40;45.40
11399;DHT22;5755;48.116;11.608;2023-03-01T14:38:56;6.40;45.40
11399;DHT22;5755;48.116;11.608;2023-03-01T14:41:34;6.50;45.50
11399;DHT22;5755;48.116;11.608;2023-03-01T14:44:03;6.20;45.30
11399;DHT22;5755;48.116;11.608;2023-03-01T14:46:33;6.20;45.30
11399;DHT22;5755;48.116;11.608;2023-03-01T14:49:04;6.10;48.30
11399;DHT22;5755;48.116;11.608;2023-03-01T14:51:36;6.20;48.20
11399;DHT22;5755;48.116;11.608;2023-03-01T14:54:04;6.20;46.30
11399;DHT22;5755;48.116;11.608;2023-03-01T14:56:45;6.30;48.00
11399;DHT22;5755;48.116;11.608;2023-03-01T14:59:12;6.30;47.90
11399;DHT22;5755;48.116;11.608;2023-03-01T15:01:40;6.30;48.30
11399;DHT22;5755;48.116;11.608;2023-03-01T15:04:11;6.40;47.90
11399;DHT22;5755;48.116;11.608;2023-03-01T15:06:39;6.50;46.90
11399;DHT22;5755;48.116;11.608;2023-03-01T15:09:13;6.60;45.60
11399;DHT22;5755;48.116;11.608;2023-03-01T15:11:40;6.60;46.60
11399;DHT22;5755;48.116;11.608;2023-03-01T15:14:40;6.50;46.90
11399;DHT22;5755;48.116;11.608;2023-03-01T15:17:25;6.50;46.60
11399;DHT22;5755;48.116;11.608;2023-03-01T15:19:54;6.50;47.00
11399;DHT22;5755;48.116;11.608;2023-03-01T15:22:21;6.40;48.60
11399;DHT22;5755;48.116;11.608;2023-03-01T15:24:48;6.30;50.40
11399;DHT22;5755;48.116;11.608;2023-03-01T15:27:17;6.30;52.50
11399;DHT22;5755;48.116;11.608;2023-03-01T15:29:52;6.30;53.00
11399;DHT22;5755;48.116;11.608;2023-03-01T15:32:27;6.40;51.80
11399;DHT22;5755;48.116;11.608;2023-03-01T15:34:55;6.40;52.40
11399;DHT22;5755;48.116;11.608;2023-03-01T15:37:44;6.30;52.50
11399;DHT22;5755;48.116;11.608;2023-03-01T15:40:21;6.30;52.20
11399;DHT22;5755;48.116;11.608;2023-03-01T15:42:50;6.30;53.30
11399;DHT22;5755;48.116;11.608;2023-03-01T15:45:24;6.20;53.50
11399;DHT22;5755;48.116;11.608;2023-03-01T15:47:54;6.20;54.10
11399;DHT22;5755;48.116;11.608;2023-03-01T15:50:25;6.20;54.80
11399;DHT22;5755;48.116;11.608;2023-03-01T15:52:53;6.20;55.50
11399;DHT22;5755;48.116;11.608;2023-03-01T15:55:22;6.10;56.40
11399;DHT22;5755;48.116;11.608;2023-03-01T15:57:57;6.20;57.00
11399;DHT22;5755;48.116;11.608;2023-03-01T16:00:27;6.20;57.40
11399;DHT22;5755;48.116;11.608;2023-03-01T16:02:55;6.20;57.70
11399;DHT22;5755;48.116;11.608;2023-03-01T16:05:24;6.10;58.40
11399;DHT22;5755;48.116;11.608;2023-03-01T16:07:52;6.20;59.40
11399;DHT22;5755;48.116;11.608;2023-03-01T16:10:18;6.20;60.90
11399;DHT22;5755;48.116;11.608;2023-03-01T16:12:45;6.00;62.50
11399;DHT22;5755;48.116;11.608;2023-03-01T16:15:16;6.00;64.80
11399;DHT22;5755;48.116;11.608;2023-03-01T16:17:45;6.00;66.60
11399;DHT22;5755;48.116;11.608;2023-03-01T16:20:12;5.90;68.10
11399;DHT22;5755;48.116;11.608;2023-03-01T16:22:41;5.90;69.00
11399;DHT22;5755;48.116;11.608;2023-03-01T16:25:09;5.80;70.60
11399;DHT22;5755;48.116;11.608;2023-03-01T16:27:35;5.80;70.60
11399;DHT22;5755;48.116;11.608;2023-03-01T16:30:03;5.80;70.60
11399;DHT22;5755;48.116;11.608;2023-03-01T16:32:30;5.70;72.20